Time;durP1;ratioP1;P1;durP2;ratioP2;P2;SDS_P1;SDS_P2;PMS_P1;PMS_P2;Temp;Humidity;BMP_temperature;BMP_pressure;BME280_temperature;BME280_humidity;BME280_pressure;Samples;Min_cycle;Max_cycle;Signal;HPM_P1;HPM_P2
2021/08/16 00:00:47;;;;;;;4.20;3.42;;;19.10;88.70;;;18.90;72.75;94545.41;5016026;28;20239;-88
2021/08/16 00:03:14;;;;;;;3.47;3.17;;;19.10;88.80;;;18.93;73.09;94552.09;5031159;28;20665;-88
2021/08/16 00:05:41;;;;;;;3.28;2.97;;;19.10;88.80;;;18.87;72.88;94549.38;5038317;28;20216;-88
2021/08/16 00:08:10;;;;;;;3.85;3.30;;;19.10;88.80;;;18.90;72.65;94552.59;5032448;28;20196;-88
2021/08/16 00:10:38;;;;;;;4.15;3.00;;;19.00;88.90;;;18.87;72.95;94544.06;5016173;28;20211;-87
2021/08/16 00:13:05;;;;;;;5.22;3.33;;;19.00;89.20;;;18.89;73.63;94546.47;5020092;28;20200;-86
2021/08/16 00:15:33;;;;;;;3.13;2.83;;;19.00;89.40;;;18.89;73.55;94538.50;4999626;28;20238;-87
2021/08/16 00:18:03;;;;;;;3.13;2.67;;;19.00;89.50;;;18.90;73.30;94534.78;5028025;28;20231;-88
2021/08/16 00:20:31;;;;;;;2.95;2.65;;;19.00;89.40;;;18.89;73.59;94519.88;5032138;28;20211;-88
2021/08/16 00:22:58;;;;;;;3.40;2.80;;;18.90;89.50;;;18.88;73.24;94521.75;5023080;28;20645;-89
2021/08/16 00:25:26;;;;;;;4.85;2.80;;;19.00;89.50;;;18.78;73.11;94508.38;5053817;28;20469;-88
2021/08/16 00:27:53;;;;;;;3.15;2.78;;;18.90;89.60;;;18.77;73.60;94504.09;5039700;28;20270;-88
2021/08/16 00:30:21;;;;;;;4.07;3.10;;;18.90;89.60;;;18.87;73.09;94527.31;5039841;28;20688;-88
2021/08/16 00:32:49;;;;;;;5.30;2.72;;;18.90;89.60;;;18.85;73.12;94532.09;5033533;28;20207;-89
2021/08/16 00:35:17;;;;;;;3.00;2.70;;;18.90;89.50;;;18.75;73.14;94511.56;5052790;28;20234;-89
2021/08/16 00:37:45;;;;;;;2.85;2.50;;;18.90;89.50;;;18.61;73.53;94492.56;5019845;28;20310;-88
2021/08/16 00:40:15;;;;;;;3.20;2.90;;;18.90;89.70;;;18.80;73.09;94522.22;5037801;28;20762;-89
2021/08/16 00:42:43;;;;;;;3.65;2.60;;;18.90;89.60;;;18.77;73.11;94514.72;5043630;28;20200;-89
2021/08/16 00:45:11;;;;;;;5.35;2.95;;;18.90;89.60;;;18.75;73.33;94511.56;5019737;28;20599;-89
2021/08/16 00:47:40;;;;;;;3.03;2.65;;;18.80;89.70;;;18.76;73.68;94515.00;5019675;28;20282;-89
2021/08/16 00:50:10;;;;;;;4.20;2.72;;;18.90;89.80;;;18.67;73.61;94496.06;5030172;28;20285;-88
2021/08/16 00:52:40;;;;;;;5.03;2.95;;;18.80;89.70;;;18.51;73.20;94482.66;5035891;28;20215;-89
2021/08/16 00:55:10;;;;;;;3.03;2.63;;;18.80;89.50;;;18.64;73.18;94510.66;5019244;28;20315;-88
2021/08/16 00:57:38;;;;;;;3.63;2.70;;;18.80;89.40;;;18.53;73.62;94503.66;5025071;28;20730;-89
2021/08/16 01:00:08;;;;;;;5.07;3.28;;;18.70;89.40;;;18.58;73.41;94503.69;5039002;28;20211;-88
2021/08/16 01:02:42;;;;;;;4.53;2.90;;;18.70;89.70;;;18.53;73.60;94493.81;5035753;28;20231;-89
2021/08/16 01:05:13;;;;;;;3.20;2.90;;;18.70;89.90;;;18.60;73.94;94504.22;5035871;28;20251;-88
2021/08/16 01:07:43;;;;;;;4.18;2.92;;;18.70;90.00;;;18.60;73.94;94506.88;5003432;28;20195;-89
2021/08/16 01:10:11;;;;;;;3.58;2.90;;;18.70;89.90;;;18.55;73.55;94497.03;5019418;28;20319;-89
2021/08/16 01:12:39;;;;;;;3.50;3.10;;;18.70;89.80;;;18.54;73.40;94507.91;5035453;28;20683;-89
2021/08/16 01:15:12;;;;;;;3.92;3.47;;;18.60;89.60;;;18.51;73.79;94513.72;5018894;28;20216;-89
2021/08/16 01:17:41;;;;;;;3.38;3.05;;;18.60;89.70;;;18.46;73.46;94501.19;5051268;28;20189;-89
2021/08/16 01:20:13;;;;;;;4.95;3.47;;;18.60;90.00;;;18.48;73.96;94504.41;5023925;28;20215;-88
2021/08/16 01:22:41;;;;;;;4.22;3.25;;;18.60;90.00;;;18.40;74.06;94496.88;5022576;28;20196;-89
2021/08/16 01:25:10;;;;;;;4.55;3.75;;;18.50;90.10;;;18.49;74.57;94508.66;5017247;28;20299;-89
2021/08/16 01:27:38;;;;;;;4.63;3.75;;;18.60;90.20;;;18.54;74.60;94515.88;5021698;28;20590;-89
2021/08/16 01:30:10;;;;;;;5.60;4.03;;;18.60;90.20;;;18.56;74.72;94506.59;5021775;28;20319;-88
2021/08/16 01:32:40;;;;;;;4.20;3.78;;;18.60;90.30;;;18.60;74.54;94511.41;5037887;28;20211;-88
2021/08/16 01:35:08;;;;;;;5.18;4.10;;;18.60;90.30;;;18.64;74.45;94515.16;5038178;28;20249;-89
2021/08/16 01:37:36;;;;;;;5.72;4.00;;;18.60;90.30;;;18.66;74.46;94510.41;5038280;28;20286;-89
2021/08/16 01:40:10;;;;;;;4.13;3.50;;;18.60;90.30;;;18.60;74.17;94501.56;5021083;28;20215;-88
2021/08/16 01:42:38;;;;;;;4.38;3.70;;;18.70;90.30;;;18.66;74.60;94511.22;5051006;28;20219;-89
2021/08/16 01:45:08;;;;;;;5.03;3.65;;;18.70;90.30;;;18.66;74.06;94507.75;5020849;28;20224;-89
2021/08/16 01:47:35;;;;;;;8.00;3.70;;;18.70;90.30;;;18.58;74.08;94486.94;5001897;28;20204;-89
2021/08/16 01:50:03;;;;;;;5.00;3.80;;;18.70;90.30;;;18.70;73.91;94501.69;5018457;28;20216;-88
2021/08/16 01:52:30;;;;;;;5.72;3.83;;;18.70;90.30;;;18.71;74.65;94508.59;5030191;28;20626;-88
2021/08/16 01:54:57;;;;;;;4.78;4.25;;;18.70;90.30;;;18.73;74.32;94511.78;5020811;28;20244;-89
2021/08/16 01:57:25;;;;;;;6.25;3.88;;;18.70;90.40;;;18.79;74.48;94506.53;5038084;28;20281;-88
2021/08/16 01:59:52;;;;;;;5.97;3.92;;;18.80;90.50;;;18.72;74.42;94504.91;5021466;28;20234;-89
2021/08/16 02:02:19;;;;;;;5.88;3.88;;;18.80;90.40;;;18.71;74.43;94503.28;5035768;28;20293;-89
2021/08/16 02:04:47;;;;;;;3.88;3.40;;;18.80;90.40;;;18.73;74.00;94511.78;5025982;28;20266;-88
2021/08/16 02:07:15;;;;;;;3.78;3.40;;;18.80;90.30;;;18.75;73.94;94511.56;5018302;28;20207;-89
2021/08/16 02:09:43;;;;;;;5.75;3.40;;;18.70;90.20;;;18.71;73.96;94513.91;5018175;28;20199;-88
2021/08/16 02:12:10;;;;;;;4.38;3.63;;;18.80;90.20;;;18.68;74.17;94508.31;5030292;28;20193;-88
2021/08/16 02:14:37;;;;;;;5.97;4.57;;;18.80;90.20;;;18.66;73.80;94513.88;5026911;28;20294;-89
2021/08/16 02:17:04;;;;;;;5.30;4.53;;;18.70;90.20;;;18.58;74.06;94509.00;5037629;28;20581;-88
2021/08/16 02:19:32;;;;;;;5.00;4.00;;;18.80;90.30;;;18.57;73.93;94499.44;5018659;28;20200;-87
2021/08/16 02:21:59;;;;;;;5.28;4.13;;;18.70;90.30;;;18.63;74.25;94502.94;5017768;28;20232;-89
2021/08/16 02:24:26;;;;;;;5.32;3.95;;;18.70;90.30;;;18.62;74.58;94498.69;5032768;28;20192;-88
2021/08/16 02:26:54;;;;;;;5.28;3.75;;;18.70;90.40;;;18.65;74.70;94506.13;5034384;28;20196;-88
2021/08/16 02:29:21;;;;;;;4.82;4.32;;;18.70;90.50;;;18.68;74.88;94503.78;5001744;28;20188;-89
2021/08/16 02:31:48;;;;;;;6.30;3.95;;;18.60;90.50;;;18.67;75.25;94488.09;5033715;28;20648;-88
2021/08/16 02:34:15;;;;;;;5.32;4.43;;;18.70;90.60;;;18.67;74.71;94494.19;5032776;28;20199;-88
2021/08/16 02:36:42;;;;;;;4.78;4.13;;;18.70;90.60;;;18.74;75.08;94496.66;5053714;28;20230;-89
2021/08/16 02:39:10;;;;;;;5.85;4.40;;;18.70;90.60;;;18.73;74.51;94495.84;5053957;28;20641;-88
2021/08/16 02:41:38;;;;;;;5.45;4.20;;;18.70;90.70;;;18.80;74.95;94500.97;5015758;28;20216;-89
2021/08/16 02:44:05;;;;;;;5.50;4.50;;;18.80;90.70;;;18.84;75.12;94501.25;5017726;28;20346;-88
2021/08/16 02:46:34;;;;;;;5.82;4.57;;;18.80;90.70;;;18.88;75.00;94499.69;5033662;28;20212;-88
2021/08/16 02:49:03;;;;;;;7.47;4.57;;;18.80;90.70;;;18.87;75.15;94498.06;5000531;28;20722;-88
2021/08/16 02:51:30;;;;;;;5.57;4.55;;;18.90;90.80;;;18.95;74.73;94499.50;5033515;28;20223;-88
2021/08/16 02:53:57;;;;;;;5.25;4.13;;;18.80;90.80;;;18.99;75.16;94495.28;5000532;28;20647;-88
2021/08/16 02:56:24;;;;;;;10.02;4.38;;;18.90;90.80;;;19.01;75.12;94490.50;5017029;28;20259;-88
2021/08/16 02:58:51;;;;;;;6.15;4.40;;;18.90;90.80;;;19.00;74.66;94484.38;5033867;28;20196;-88
2021/08/16 03:01:19;;;;;;;4.60;3.75;;;18.90;90.80;;;19.08;74.55;94498.25;5011970;28;20265;-89
2021/08/16 03:03:46;;;;;;;5.28;4.15;;;18.90;90.80;;;19.08;74.87;94495.59;5020272;28;20202;-88
2021/08/16 03:06:13;;;;;;;5.55;4.57;;;19.00;90.80;;;19.10;74.83;94496.16;5036632;28;20269;-87
2021/08/16 03:08:40;;;;;;;7.85;4.90;;;18.90;91.00;;;19.05;74.95;94488.94;5026998;28;20614;-88
2021/08/16 03:11:08;;;;;;;5.32;4.18;;;19.00;90.80;;;18.98;74.70;94473.22;5017750;28;20215;-88
2021/08/16 03:13:35;;;;;;;6.25;4.70;;;19.00;90.80;;;19.20;75.02;94488.25;5033129;28;20235;-86
2021/08/16 03:16:03;;;;;;;8.50;4.57;;;19.10;90.90;;;19.22;74.68;94494.09;5016710;28;20689;-86
2021/08/16 03:18:33;;;;;;;5.55;4.55;;;19.10;90.80;;;19.19;75.22;94492.75;5018669;28;20610;-85
2021/08/16 03:21:00;;;;;;;6.25;3.97;;;19.10;90.90;;;19.26;74.80;94507.69;5000749;28;20589;-86
2021/08/16 03:23:28;;;;;;;5.25;4.30;;;19.10;90.90;;;19.27;75.06;94502.09;5032985;28;20246;-86
2021/08/16 03:25:55;;;;;;;6.13;4.55;;;19.20;90.90;;;19.32;75.14;94510.13;5032510;28;20223;-85
2021/08/16 03:28:26;;;;;;;6.47;4.68;;;19.20;90.90;;;19.32;74.80;94507.47;5047857;28;20269;-86
2021/08/16 03:30:54;;;;;;;5.55;4.88;;;19.10;90.90;;;19.35;74.86;94506.94;5035874;28;20220;-86
2021/08/16 03:33:21;;;;;;;4.53;4.10;;;19.20;90.90;;;19.39;74.76;94509.09;5016451;28;20208;-86
2021/08/16 03:35:48;;;;;;;7.30;4.28;;;19.20;90.90;;;19.36;74.66;94503.22;5016089;28;20223;-86
2021/08/16 03:38:16;;;;;;;5.68;4.40;;;19.20;90.80;;;19.32;74.88;94490.72;5016342;28;20227;-86
2021/08/16 03:40:43;;;;;;;5.78;4.78;;;19.30;90.80;;;19.39;74.96;94493.94;5016227;28;20239;-86
2021/08/16 03:43:10;;;;;;;5.43;4.60;;;19.20;90.80;;;19.40;74.59;94492.09;5049155;28;20672;-85
2021/08/16 03:45:38;;;;;;;8.63;5.50;;;19.30;90.90;;;19.42;74.82;94490.78;5034778;28;20598;-86
2021/08/16 03:48:06;;;;;;;5.55;4.43;;;19.30;90.90;;;19.43;75.05;94494.22;5032237;28;20198;-85
2021/08/16 03:50:33;;;;;;;7.70;5.45;;;19.30;90.90;;;19.44;74.79;94498.50;5031974;28;20290;-86
2021/08/16 03:53:00;;;;;;;7.38;5.28;;;19.30;90.90;;;19.41;75.02;94486.50;5032309;28;20266;-85
2021/08/16 03:55:27;;;;;;;5.72;4.75;;;19.30;90.90;;;19.45;75.12;94484.13;5032000;28;20219;-85
2021/08/16 03:57:54;;;;;;;6.53;4.50;;;19.30;90.90;;;19.49;74.77;94488.69;5015441;28;20223;-85
2021/08/16 04:00:22;;;;;;;6.18;4.80;;;19.30;91.00;;;19.52;75.12;94479.38;5015755;28;20278;-85
2021/08/16 04:02:49;;;;;;;5.53;4.90;;;19.30;91.00;;;19.55;75.09;94486.84;5037648;28;20191;-85
2021/08/16 04:05:16;;;;;;;6.45;5.05;;;19.40;91.00;;;19.57;75.05;94482.06;5035772;28;20219;-85
2021/08/16 04:07:44;;;;;;;8.18;5.20;;;19.40;91.00;;;19.60;74.94;94478.09;5051305;28;20231;-85
2021/08/16 04:10:13;;;;;;;5.07;4.57;;;19.50;91.10;;;19.63;75.36;94478.38;5052097;28;20219;-85
2021/08/16 04:12:42;;;;;;;5.88;4.40;;;19.50;91.10;;;19.66;75.22;94483.19;5035006;28;20199;-85
2021/08/16 04:15:22;;;;;;;6.40;4.97;;;19.40;91.10;;;19.70;74.97;94477.31;5032604;28;20243;-85
2021/08/16 04:17:50;;;;;;;6.28;5.00;;;19.50;91.00;;;19.68;75.37;94467.75;5036149;28;20238;-84
2021/08/16 04:20:19;;;;;;;5.93;4.78;;;19.50;91.20;;;19.78;75.62;94482.16;5017644;28;21463;-85
2021/08/16 04:22:47;;;;;;;5.90;4.82;;;19.60;91.30;;;19.81;75.67;94478.97;5031005;28;20646;-84
2021/08/16 04:25:17;;;;;;;6.80;5.70;;;19.60;91.30;;;19.88;75.34;94481.44;5060553;28;20684;-85
2021/08/16 04:27:47;;;;;;;5.80;5.20;;;19.70;91.30;;;19.94;75.51;94481.16;5032056;28;20185;-84
2021/08/16 04:30:16;;;;;;;5.93;5.22;;;19.70;91.40;;;20.00;75.49;94482.00;5031858;28;20223;-84
2021/08/16 04:32:44;;;;;;;7.10;5.35;;;19.70;91.50;;;19.96;75.27;94472.94;5049515;28;20207;-85
2021/08/16 04:35:11;;;;;;;6.80;5.55;;;19.80;91.50;;;20.11;75.78;94494.25;5011378;28;20245;-84
2021/08/16 04:37:41;;;;;;;10.43;6.00;;;19.70;91.50;;;20.14;75.54;94492.94;5035220;28;20322;-84
2021/08/16 04:40:09;;;;;;;6.18;5.35;;;19.80;91.50;;;20.18;75.55;94488.72;5027426;28;20315;-84
2021/08/16 04:42:38;;;;;;;5.95;4.90;;;19.90;91.50;;;20.21;75.27;94484.72;5026893;28;20200;-85
2021/08/16 04:45:07;;;;;;;6.40;5.32;;;19.90;91.60;;;20.26;75.09;94496.19;5015891;28;20677;-84
2021/08/16 04:47:36;;;;;;;6.70;5.25;;;19.90;91.40;;;20.25;75.15;94499.09;5049756;28;20184;-84
2021/08/16 04:50:05;;;;;;;6.47;4.85;;;20.00;91.50;;;20.31;75.40;94506.03;5043570;28;20216;-85
2021/08/16 04:52:32;;;;;;;6.85;5.50;;;20.00;91.40;;;20.31;74.98;94514.03;5031651;28;20200;-85
2021/08/16 04:54:59;;;;;;;7.20;4.75;;;20.10;91.40;;;20.32;75.27;94507.63;5015441;28;20219;-85
2021/08/16 04:57:38;;;;;;;7.95;5.43;;;20.00;91.40;;;20.26;74.99;94496.19;5015133;28;20255;-84
2021/08/16 05:00:09;;;;;;;6.97;5.25;;;20.00;91.20;;;20.31;75.03;94514.84;5046943;28;20228;-84
2021/08/16 05:02:38;;;;;;;8.20;5.82;;;20.10;91.30;;;20.29;75.00;94508.97;5014933;28;20181;-84
2021/08/16 05:05:12;;;;;;;8.73;5.30;;;20.10;91.30;;;20.31;74.71;94514.03;5015369;28;20228;-85
2021/08/16 05:07:47;;;;;;;8.55;5.45;;;20.10;91.30;;;20.32;75.08;94507.63;5016145;28;20223;-84
2021/08/16 05:10:16;;;;;;;9.18;5.72;;;20.10;91.30;;;20.34;75.06;94510.06;5015678;28;20223;-85
2021/08/16 05:12:44;;;;;;;7.68;6.22;;;20.10;91.50;;;20.36;75.53;94510.56;5018905;28;20276;-85
2021/08/16 05:15:12;;;;;;;7.40;5.57;;;20.10;91.60;;;;;;5035077;28;20259;-85
2021/08/16 05:17:39;;;;;;;8.98;6.95;;;20.10;91.70;;;20.40;75.40;94517.78;5043643;28;20557;-85
2021/08/16 05:20:08;;;;;;;7.65;6.35;;;20.20;91.80;;;20.53;76.39;94511.16;5054865;28;20590;-85
2021/08/16 05:22:40;;;;;;;9.75;7.03;;;20.20;92.00;;;20.66;76.43;94512.50;5054808;28;20657;-85
2021/08/16 05:25:10;;;;;;;7.82;6.72;;;20.20;92.10;;;20.82;76.66;94509.88;5038373;28;20253;-84
2021/08/16 05:27:37;;;;;;;7.65;6.57;;;20.40;92.40;;;20.94;76.22;94508.53;5037717;28;20199;-84
2021/08/16 05:30:05;;;;;;;8.93;7.13;;;20.40;92.50;;;21.08;76.45;94505.31;5038113;28;20247;-84
2021/08/16 05:32:32;;;;;;;7.80;5.80;;;20.50;92.60;;;21.20;76.50;94510.38;5038231;28;20196;-85
2021/08/16 05:34:59;;;;;;;8.48;6.10;;;20.60;92.70;;;21.31;76.21;94508.50;5054986;28;20246;-85
2021/08/16 05:37:26;;;;;;;6.90;5.63;;;20.70;92.70;;;21.42;76.08;94508.22;5037757;28;20216;-84
2021/08/16 05:39:54;;;;;;;9.25;6.25;;;20.80;92.80;;;21.52;75.87;94498.56;5002195;28;20240;-84
2021/08/16 05:42:21;;;;;;;9.05;6.32;;;20.90;92.90;;;21.60;75.87;94487.38;5034611;28;20202;-84
2021/08/16 05:44:48;;;;;;;7.38;6.40;;;21.00;92.90;;;21.78;76.12;94503.91;5034814;28;20317;-84
2021/08/16 05:47:15;;;;;;;9.10;6.57;;;21.10;92.90;;;21.83;75.73;94502.00;5012293;28;20196;-85
2021/08/16 05:49:42;;;;;;;8.80;5.60;;;21.10;92.90;;;21.89;75.88;94500.09;5051247;28;20249;-85
2021/08/16 05:52:09;;;;;;;6.30;5.68;;;21.30;92.80;;;21.95;75.82;94511.53;5051020;28;20208;-83
2021/08/16 05:54:36;;;;;;;8.52;5.55;;;21.30;92.80;;;22.01;75.79;94515.81;5053344;28;20212;-84
2021/08/16 05:57:04;;;;;;;8.55;5.55;;;21.50;92.80;;;22.11;75.96;94521.09;5054088;28;20227;-84
2021/08/16 05:59:31;;;;;;;6.20;5.43;;;21.50;92.90;;;22.21;75.83;94529.06;5021166;28;20233;-84
2021/08/16 06:01:58;;;;;;;5.85;5.35;;;21.50;93.00;;;22.28;75.74;94520.75;5038648;28;20209;-84
2021/08/16 06:04:26;;;;;;;7.38;5.72;;;21.70;93.10;;;22.37;76.09;94519.13;5017520;28;20202;-84
2021/08/16 06:06:53;;;;;;;9.88;6.00;;;21.70;93.10;;;22.42;76.16;94514.84;5017677;28;20191;-84
2021/08/16 06:09:20;;;;;;;7.03;6.25;;;21.80;93.10;;;22.57;76.19;94520.09;5018007;28;20203;-84
2021/08/16 06:11:47;;;;;;;8.30;6.57;;;21.90;93.10;;;22.67;76.36;94521.91;5017659;28;20227;-84
2021/08/16 06:14:15;;;;;;;6.50;5.90;;;22.00;93.10;;;22.79;76.28;94522.34;5033762;28;20195;-84
2021/08/16 06:16:42;;;;;;;6.60;5.95;;;22.10;93.20;;;22.91;76.18;94523.84;5017655;28;20318;-84
2021/08/16 06:19:09;;;;;;;7.45;6.65;;;22.20;93.20;;;23.03;76.54;94522.44;5018101;28;20207;-85
2021/08/16 06:21:42;;;;;;;7.60;6.22;;;22.30;93.20;;;23.12;76.40;94511.09;5035400;28;20211;-84
2021/08/16 06:24:11;;;;;;;8.60;6.25;;;22.40;93.20;;;23.30;76.10;94525.69;5021639;28;20195;-84
2021/08/16 06:26:40;;;;;;;7.10;6.13;;;22.50;93.20;;;23.39;76.26;94525.88;5053514;28;20277;-84
2021/08/16 06:29:07;;;;;;;11.32;6.78;;;22.60;93.30;;;23.56;76.35;94534.28;5020642;28;20219;-84
2021/08/16 06:31:34;;;;;;;14.88;7.43;;;22.70;93.30;;;23.63;75.76;94534.75;5001423;28;20220;-84
2021/08/16 06:34:03;;;;;;;8.32;6.88;;;22.90;93.30;;;23.73;75.89;94531.16;5017173;28;20204;-84
2021/08/16 06:36:37;;;;;;;9.35;7.07;;;22.90;93.30;;;23.89;75.83;94541.69;5017097;28;20306;-84
2021/08/16 06:39:18;;;;;;;9.70;7.90;;;23.10;93.30;;;23.94;75.67;94533.66;5033903;28;20210;-84
2021/08/16 06:41:47;;;;;;;10.88;7.90;;;23.10;93.20;;;24.03;75.46;94533.81;5034305;28;20307;-84
2021/08/16 06:44:17;;;;;;;12.38;7.93;;;23.30;93.10;;;24.08;75.11;94539.09;5017013;28;20202;-84
2021/08/16 06:46:48;;;;;;;9.55;7.88;;;23.40;92.90;;;24.16;75.05;94538.47;5024100;28;20278;-84
2021/08/16 06:49:16;;;;;;;7.75;6.95;;;23.50;92.60;;;24.26;75.17;94538.34;5037009;28;20188;-83
2021/08/16 06:51:43;;;;;;;12.82;7.28;;;23.60;92.90;;;24.33;75.40;94542.53;5052941;28;20266;-84
2021/08/16 06:54:10;;;;;;;8.48;7.13;;;23.60;92.90;;;24.43;75.28;94548.56;5053259;28;20611;-84
2021/08/16 06:57:01;;;;;;;8.50;7.35;;;23.70;93.00;;;24.53;75.03;94553.00;5034356;28;20226;-85
2021/08/16 06:59:28;;;;;;;8.10;7.30;;;23.80;93.00;;;24.59;75.28;94543.78;5033009;28;20216;-84
2021/08/16 07:01:55;;;;;;;8.80;7.25;;;23.90;93.00;;;24.69;75.03;94542.09;5016446;28;20666;-83
2021/08/16 07:04:24;;;;;;;10.40;7.40;;;23.90;92.90;;;24.71;74.16;94556.03;5032882;28;20232;-84
2021/08/16 07:06:52;;;;;;;11.05;7.93;;;24.00;92.80;;;24.74;74.10;94555.44;5032888;28;20680;-84
2021/08/16 07:09:19;;;;;;;8.65;7.40;;;24.10;92.50;;;24.74;73.77;94545.50;5033234;28;20202;-84
2021/08/16 07:11:46;;;;;;;14.30;8.15;;;24.10;92.40;;;24.80;74.28;94550.78;5023966;28;20218;-84
2021/08/16 07:14:13;;;;;;;8.27;7.15;;;24.10;92.40;;;24.83;74.64;94550.19;5032938;28;20285;-84
2021/08/16 07:16:40;;;;;;;8.80;7.90;;;24.20;92.50;;;24.95;74.55;94553.25;5032397;28;20221;-84
2021/08/16 07:19:08;;;;;;;7.75;6.38;;;24.30;92.50;;;25.03;74.79;94538.38;5032661;28;20232;-84
2021/08/16 07:21:35;;;;;;;7.70;6.90;;;24.30;92.60;;;25.15;74.91;94548.66;5016014;28;20212;-84
2021/08/16 07:24:03;;;;;;;10.88;6.97;;;24.40;92.60;;;25.26;74.55;94536.66;5016202;28;20228;-84
2021/08/16 07:26:30;;;;;;;9.18;6.85;;;24.50;92.60;;;25.38;74.55;94539.69;5016409;28;20210;-84
2021/08/16 07:28:57;;;;;;;9.73;7.43;;;24.60;92.50;;;25.45;74.28;94542.00;5016210;28;20678;-84
2021/08/16 07:31:24;;;;;;;7.80;7.00;;;24.60;92.30;;;25.53;73.94;94541.31;5031689;28;20213;-82
2021/08/16 07:33:52;;;;;;;9.23;6.97;;;24.80;92.30;;;25.62;73.84;94540.63;5015522;28;20192;-84
2021/08/16 07:36:19;;;;;;;8.52;7.07;;;24.80;92.00;;;25.61;73.77;94522.91;5015726;28;20210;-84
2021/08/16 07:38:47;;;;;;;8.93;7.25;;;24.90;91.90;;;25.72;73.34;94527.81;5015638;28;20327;-84
2021/08/16 07:41:14;;;;;;;8.00;6.88;;;25.00;91.80;;;25.70;73.52;94523.84;5031938;28;20213;-84
2021/08/16 07:43:41;;;;;;;9.63;7.10;;;25.00;91.70;;;25.81;73.69;94522.53;5015700;28;20241;-84
2021/08/16 07:46:09;;;;;;;8.13;6.32;;;25.10;91.50;;;25.88;73.15;94520.25;5031886;28;20210;-84
2021/08/16 07:48:36;;;;;;;9.82;6.85;;;25.20;91.50;;;25.98;73.29;94529.22;5015034;28;20213;-81
2021/08/16 07:51:04;;;;;;;7.55;6.43;;;25.30;91.40;;;26.03;73.13;94531.81;5031786;28;20221;-84
2021/08/16 07:53:31;;;;;;;10.48;6.60;;;25.30;91.20;;;26.09;72.90;94527.16;5015501;28;20308;-83
2021/08/16 07:55:58;;;;;;;12.23;7.32;;;25.40;91.20;;;26.15;72.59;94525.97;5015538;28;20230;-84
2021/08/16 07:58:27;;;;;;;11.30;7.28;;;25.50;91.10;;;26.22;72.64;94523.66;5015181;28;20276;-84
2021/08/16 08:00:54;;;;;;;11.52;6.75;;;25.50;91.00;;;26.31;72.55;94531.81;5015590;28;20308;-84
2021/08/16 08:03:21;;;;;;;11.95;6.80;;;25.60;91.00;;;26.40;72.46;94532.69;5031421;28;20201;-84
2021/08/16 08:05:49;;;;;;;9.23;6.80;;;25.70;91.00;;;26.47;72.54;94529.59;5031776;28;20279;-84
2021/08/16 08:08:16;;;;;;;8.98;7.18;;;25.70;90.90;;;26.52;71.95;94532.16;5015139;28;20348;-83
2021/08/16 08:10:43;;;;;;;10.20;6.75;;;25.80;90.80;;;26.57;71.99;94532.03;5000347;28;20739;-84
2021/08/16 08:13:11;;;;;;;8.88;7.25;;;25.90;90.70;;;26.61;71.65;94524.16;5031665;28;20204;-84
2021/08/16 08:15:38;;;;;;;10.23;7.70;;;25.90;90.60;;;26.67;71.11;94531.84;5031852;28;20225;-83
2021/08/16 08:18:06;;;;;;;10.38;7.60;;;26.00;90.30;;;26.73;70.78;94539.78;5015329;28;20227;-83
2021/08/16 08:20:34;;;;;;;9.45;7.30;;;26.10;90.50;;;26.77;70.50;94546.97;4998624;28;20220;-84
2021/08/16 08:23:02;;;;;;;8.70;6.97;;;26.20;90.00;;;26.76;69.80;94540.00;5015200;28;20310;-84
2021/08/16 08:25:29;;;;;;;9.30;7.25;;;26.20;89.60;;;26.78;70.22;94531.63;5014922;28;20214;-84
2021/08/16 08:27:57;;;;;;;8.27;6.53;;;26.20;89.50;;;26.89;70.64;94553.72;4998891;28;20210;-83
2021/08/16 08:30:24;;;;;;;8.43;7.45;;;26.20;90.00;;;26.96;69.85;94549.47;5015071;28;20223;-84
2021/08/16 08:32:54;;;;;;;8.60;7.40;;;26.30;89.60;;;27.01;70.18;94556.66;5015038;28;20696;-84
2021/08/16 08:35:23;;;;;;;8.35;7.20;;;26.40;88.60;;;27.10;69.37;94562.09;5015198;28;20664;-83
2021/08/16 08:37:50;;;;;;;9.10;7.28;;;26.40;88.90;;;27.10;69.19;94562.09;5031351;28;20220;-83
2021/08/16 08:40:19;;;;;;;10.02;7.53;;;26.50;88.90;;;27.16;68.55;94574.34;5015045;28;20223;-84
2021/08/16 08:42:52;;;;;;;10.93;7.28;;;26.50;87.70;;;27.17;68.70;94570.53;5031418;28;20195;-84
2021/08/16 08:45:26;;;;;;;8.00;6.30;;;26.60;86.50;;;27.22;68.87;94580.41;5036837;28;20217;-84
2021/08/16 08:47:54;;;;;;;11.05;6.85;;;26.60;87.00;;;27.24;68.86;94565.53;5035437;28;20227;-84
2021/08/16 08:50:22;;;;;;;10.05;7.05;;;26.60;87.80;;;27.32;69.54;94569.41;5035030;28;20222;-84
2021/08/16 08:52:52;;;;;;;10.07;7.15;;;26.70;88.00;;;27.38;68.28;94568.16;5035191;28;20226;-84
2021/08/16 08:55:19;;;;;;;10.82;6.82;;;26.70;87.20;;;27.42;68.53;94565.69;5018700;28;20219;-83
2021/08/16 08:58:06;;;;;;;9.65;7.22;;;26.80;87.60;;;27.44;68.60;94575.06;5021612;28;20297;-84
2021/08/16 09:00:38;;;;;;;10.02;7.78;;;26.80;87.30;;;27.42;68.07;94555.69;5019383;28;20223;-83
2021/08/16 09:03:06;;;;;;;9.85;7.68;;;26.90;86.30;;;27.43;68.30;94561.91;5036597;28;20212;-83
2021/08/16 09:05:53;;;;;;;9.50;8.02;;;26.90;86.30;;;27.40;67.31;94557.88;5021814;28;20220;-84
2021/08/16 09:08:26;;;;;;;9.82;7.85;;;26.90;86.30;;;27.41;67.47;94558.72;5021537;28;20248;-83
2021/08/16 09:11:09;;;;;;;12.88;8.25;;;26.90;85.40;;;27.42;67.84;94554.91;5038036;28;20314;-84
2021/08/16 09:13:57;;;;;;;11.60;7.85;;;26.90;86.30;;;27.50;67.73;94556.84;5055534;28;20211;-84
2021/08/16 09:16:31;;;;;;;10.13;7.72;;;26.90;85.20;;;27.53;68.19;94545.47;5054791;28;20833;-83
2021/08/16 09:19:10;;;;;;;10.55;8.30;;;27.00;86.40;;;27.58;67.48;94549.94;5029381;28;20232;-84
2021/08/16 09:21:44;;;;;;;9.80;8.68;;;27.00;86.40;;;27.64;67.46;94551.38;5018358;28;20223;-84
2021/08/16 09:24:12;;;;;;;11.73;8.30;;;27.10;86.40;;;27.69;67.40;94553.94;5035763;28;20247;-84
2021/08/16 09:26:43;;;;;;;10.10;8.38;;;27.10;87.20;;;27.75;66.95;94551.91;5017785;28;20789;-83
2021/08/16 09:29:24;;;;;;;15.20;9.00;;;27.10;85.30;;;27.70;67.06;94531.28;5034811;28;20189;-84
2021/08/16 09:32:01;;;;;;;12.20;9.00;;;27.20;86.40;;;27.80;66.88;94541.78;5017844;28;20251;-84
2021/08/16 09:34:40;;;;;;;9.02;7.97;;;27.20;85.60;;;27.86;66.73;94538.97;5018093;28;20207;-84
2021/08/16 09:37:17;;;;;;;11.00;8.45;;;27.20;84.90;;;27.92;66.87;94538.50;5034210;28;20235;-84
2021/08/16 09:39:45;;;;;;;10.30;9.18;;;27.30;85.20;;;27.95;66.67;94537.09;5034291;28;20243;-84
2021/08/16 09:42:12;;;;;;;12.30;9.13;;;27.30;84.80;;;28.00;66.07;94541.53;5021093;28;20223;-83
2021/08/16 09:44:49;;;;;;;11.95;8.93;;;27.40;84.70;;;28.08;65.40;94533.50;5037834;28;20654;-84
2021/08/16 09:47:17;;;;;;;11.88;8.68;;;27.40;83.20;;;28.15;65.78;94526.88;5037337;28;20268;-84
2021/08/16 09:49:57;;;;;;;10.93;9.32;;;27.50;84.20;;;28.23;64.51;94540.38;5037628;28;20228;-84
2021/08/16 09:52:32;;;;;;;11.88;9.65;;;27.50;84.20;;;28.26;64.25;94544.38;5037118;28;20258;-84
2021/08/16 09:55:00;;;;;;;11.80;9.65;;;27.60;81.70;;;28.26;62.51;94538.97;5053691;28;20272;-84
2021/08/16 09:57:32;;;;;;;10.40;9.40;;;27.60;82.00;;;28.31;63.58;94532.59;5053264;28;20201;-84
2021/08/16 10:00:00;;;;;;;10.50;8.68;;;27.70;82.30;;;28.36;64.45;94535.97;5053653;28;20223;-84
2021/08/16 10:02:28;;;;;;;11.02;8.65;;;27.80;83.00;;;28.47;63.59;94535.69;5053590;28;20195;-83
2021/08/16 10:04:57;;;;;;;10.88;9.32;;;27.80;82.80;;;28.52;62.96;94522.81;5033164;28;20328;-84
2021/08/16 10:07:34;;;;;;;12.32;9.40;;;27.90;82.20;;;28.64;63.59;94524.09;5018223;28;20225;-83
2021/08/16 10:10:03;;;;;;;12.05;9.02;;;27.90;81.50;;;28.73;63.56;94514.13;5017370;28;20728;-84
2021/08/16 10:12:32;;;;;;;9.88;8.32;;;28.00;82.20;;;28.77;63.47;94511.59;5033605;28;20202;-84
2021/08/16 10:15:02;;;;;;;11.40;9.10;;;28.00;81.70;;;28.87;61.30;94514.75;5017158;28;20255;-83
2021/08/16 10:17:38;;;;;;;12.43;9.13;;;28.10;80.00;;;28.94;62.86;94502.69;5001167;28;20586;-84
2021/08/16 10:20:07;;;;;;;11.40;8.98;;;28.20;81.30;;;29.01;62.64;94498.38;5017399;28;20237;-84
2021/08/16 10:22:39;;;;;;;11.70;8.23;;;28.30;81.10;;;29.17;62.94;94504.06;5033145;28;20207;-84
2021/08/16 10:25:15;;;;;;;10.40;8.10;;;28.30;81.50;;;29.29;62.03;94484.53;5016843;28;20657;-85